Terminal Aerodrome Forecast
Issued by NWS

Home | Current Version | Previous Version | Graphics & Text | Print | Product List | Glossary On
Versions: 1 2 3 4 5 6 7 8 9 10 11 12 13 14 15 16 17 18 19 20 21 22
000
FTUS43 KGRB 161726
TAFRHI
TAF
KRHI 161726Z 1618/1718 VRB03KT 6SM HZ BKN150
     FM170000 VRB02KT P6SM OVC120
     FM170300 VRB02KT 5SM BR SCT020 OVC040 PROB30 1703/1706 2SM -SN
      BR BKN020
     FM170600 VRB02KT 3SM -SNPL BR OVC015
     FM170900 VRB03KT 2SM -SNPL BR OVC007
     FM171500 01004KT 3SM -SN BR BKN015 OVC050=

USA.gov is the U.S. government's official web portal to all federal, state and local government web resources and services.